sensor_id;sensor_type;location;lat;lon;timestamp;temperature;humidity
59505;DHT22;45321;53.200;5.814;2023-08-17T00:01:47;18.30;76.70
59505;DHT22;45321;53.200;5.814;2023-08-17T00:04:13;18.30;76.60
59505;DHT22;45321;53.200;5.814;2023-08-17T00:06:39;18.30;76.70
59505;DHT22;45321;53.200;5.814;2023-08-17T00:09:04;18.20;76.60
59505;DHT22;45321;53.200;5.814;2023-08-17T00:11:30;18.20;76.70
59505;DHT22;45321;53.200;5.814;2023-08-17T00:13:56;18.20;76.70
59505;DHT22;45321;53.200;5.814;2023-08-17T00:16:22;18.20;76.80
59505;DHT22;45321;53.200;5.814;2023-08-17T00:18:49;18.20;76.90
59505;DHT22;45321;53.200;5.814;2023-08-17T00:21:15;18.10;76.90
59505;DHT22;45321;53.200;5.814;2023-08-17T00:23:40;18.10;76.90
59505;DHT22;45321;53.200;5.814;2023-08-17T00:26:06;18.10;77.10
59505;DHT22;45321;53.200;5.814;2023-08-17T00:28:32;18.10;77.20
59505;DHT22;45321;53.200;5.814;2023-08-17T00:30:59;18.00;77.00
59505;DHT22;45321;53.200;5.814;2023-08-17T00:33:25;18.00;77.30
59505;DHT22;45321;53.200;5.814;2023-08-17T00:35:50;18.00;77.20
59505;DHT22;45321;53.200;5.814;2023-08-17T00:38:16;18.00;77.10
59505;DHT22;45321;53.200;5.814;2023-08-17T00:40:42;18.00;77.10
59505;DHT22;45321;53.200;5.814;2023-08-17T00:43:07;17.90;77.40
59505;DHT22;45321;53.200;5.814;2023-08-17T00:45:33;17.90;77.20
59505;DHT22;45321;53.200;5.814;2023-08-17T00:48:00;17.90;77.20
59505;DHT22;45321;53.200;5.814;2023-08-17T00:50:25;17.90;77.30
59505;DHT22;45321;53.200;5.814;2023-08-17T00:52:52;17.90;77.20
59505;DHT22;45321;53.200;5.814;2023-08-17T00:55:19;17.80;77.30
59505;DHT22;45321;53.200;5.814;2023-08-17T00:57:46;17.80;77.30
59505;DHT22;45321;53.200;5.814;2023-08-17T01:00:13;17.80;77.30
59505;DHT22;45321;53.200;5.814;2023-08-17T01:02:42;17.80;77.30
59505;DHT22;45321;53.200;5.814;2023-08-17T01:05:09;17.80;77.40
59505;DHT22;45321;53.200;5.814;2023-08-17T01:07:34;17.80;77.50
59505;DHT22;45321;53.200;5.814;2023-08-17T01:10:01;17.70;77.40
59505;DHT22;45321;53.200;5.814;2023-08-17T01:12:33;17.70;77.20
59505;DHT22;45321;53.200;5.814;2023-08-17T01:17:32;17.70;77.30
59505;DHT22;45321;53.200;5.814;2023-08-17T01:19:59;17.70;77.30
59505;DHT22;45321;53.200;5.814;2023-08-17T01:22:26;17.70;77.30
59505;DHT22;45321;53.200;5.814;2023-08-17T01:24:56;17.70;77.40
59505;DHT22;45321;53.200;5.814;2023-08-17T01:27:32;17.60;77.50
59505;DHT22;45321;53.200;5.814;2023-08-17T01:29:58;17.50;77.50
59505;DHT22;45321;53.200;5.814;2023-08-17T01:32:32;17.50;77.60
59505;DHT22;45321;53.200;5.814;2023-08-17T01:37:59;17.50;77.70
59505;DHT22;45321;53.200;5.814;2023-08-17T01:40:27;17.50;77.70
59505;DHT22;45321;53.200;5.814;2023-08-17T01:42:54;17.50;77.70
59505;DHT22;45321;53.200;5.814;2023-08-17T01:45:21;17.50;77.80
59505;DHT22;45321;53.200;5.814;2023-08-17T01:47:46;17.40;77.60
59505;DHT22;45321;53.200;5.814;2023-08-17T01:50:14;17.40;77.90
59505;DHT22;45321;53.200;5.814;2023-08-17T01:52:39;17.40;77.90
59505;DHT22;45321;53.200;5.814;2023-08-17T01:55:05;17.30;77.80
59505;DHT22;45321;53.200;5.814;2023-08-17T01:57:31;17.30;78.00
59505;DHT22;45321;53.200;5.814;2023-08-17T01:59:57;17.30;77.90
59505;DHT22;45321;53.200;5.814;2023-08-17T02:02:23;17.30;77.90
59505;DHT22;45321;53.200;5.814;2023-08-17T02:04:49;17.30;77.90
59505;DHT22;45321;53.200;5.814;2023-08-17T02:07:14;17.30;78.00
59505;DHT22;45321;53.200;5.814;2023-08-17T02:09:40;17.30;78.00
59505;DHT22;45321;53.200;5.814;2023-08-17T02:12:06;17.20;78.00
59505;DHT22;45321;53.200;5.814;2023-08-17T02:14:34;17.20;78.20
59505;DHT22;45321;53.200;5.814;2023-08-17T02:16:59;17.20;78.30
59505;DHT22;45321;53.200;5.814;2023-08-17T02:19:25;17.20;78.30
59505;DHT22;45321;53.200;5.814;2023-08-17T02:21:51;17.20;78.40
59505;DHT22;45321;53.200;5.814;2023-08-17T02:24:17;17.20;78.50
59505;DHT22;45321;53.200;5.814;2023-08-17T02:26:43;17.20;78.60
59505;DHT22;45321;53.200;5.814;2023-08-17T02:29:08;17.10;78.60
59505;DHT22;45321;53.200;5.814;2023-08-17T02:31:34;17.20;78.60
59505;DHT22;45321;53.200;5.814;2023-08-17T02:34:00;17.10;78.70
59505;DHT22;45321;53.200;5.814;2023-08-17T02:36:31;17.10;78.70
59505;DHT22;45321;53.200;5.814;2023-08-17T02:38:57;17.10;78.80
59505;DHT22;45321;53.200;5.814;2023-08-17T02:41:23;17.10;79.00
59505;DHT22;45321;53.200;5.814;2023-08-17T02:43:48;17.10;79.00
59505;DHT22;45321;53.200;5.814;2023-08-17T02:46:14;17.20;79.10
59505;DHT22;45321;53.200;5.814;2023-08-17T02:48:40;17.10;79.10
59505;DHT22;45321;53.200;5.814;2023-08-17T02:51:06;17.20;79.10
59505;DHT22;45321;53.200;5.814;2023-08-17T02:53:32;17.10;79.10
59505;DHT22;45321;53.200;5.814;2023-08-17T02:55:57;17.20;79.10
59505;DHT22;45321;53.200;5.814;2023-08-17T02:58:23;17.20;79.20
59505;DHT22;45321;53.200;5.814;2023-08-17T03:00:51;17.20;79.20
59505;DHT22;45321;53.200;5.814;2023-08-17T03:03:17;17.10;79.40
59505;DHT22;45321;53.200;5.814;2023-08-17T03:05:43;17.10;79.30
59505;DHT22;45321;53.200;5.814;2023-08-17T03:08:09;17.10;79.40
59505;DHT22;45321;53.200;5.814;2023-08-17T03:10:34;17.10;79.60
59505;DHT22;45321;53.200;5.814;2023-08-17T03:13:00;17.10;79.60
59505;DHT22;45321;53.200;5.814;2023-08-17T03:15:26;17.10;79.60
59505;DHT22;45321;53.200;5.814;2023-08-17T03:17:52;17.00;79.70
59505;DHT22;45321;53.200;5.814;2023-08-17T03:20:17;17.10;79.80
59505;DHT22;45321;53.200;5.814;2023-08-17T03:22:43;17.10;79.70
59505;DHT22;45321;53.200;5.814;2023-08-17T03:25:09;17.00;79.70
59505;DHT22;45321;53.200;5.814;2023-08-17T03:27:34;17.00;79.90
59505;DHT22;45321;53.200;5.814;2023-08-17T03:30:00;17.10;80.20
59505;DHT22;45321;53.200;5.814;2023-08-17T03:32:26;17.10;80.10
59505;DHT22;45321;53.200;5.814;2023-08-17T03:34:52;17.10;80.20
59505;DHT22;45321;53.200;5.814;2023-08-17T03:37:18;17.00;80.10
59505;DHT22;45321;53.200;5.814;2023-08-17T03:39:43;17.10;80.20
59505;DHT22;45321;53.200;5.814;2023-08-17T03:42:09;17.10;80.40
59505;DHT22;45321;53.200;5.814;2023-08-17T03:44:35;17.00;80.40
59505;DHT22;45321;53.200;5.814;2023-08-17T03:47:00;17.00;80.40
59505;DHT22;45321;53.200;5.814;2023-08-17T03:49:26;16.90;80.40
59505;DHT22;45321;53.200;5.814;2023-08-17T03:51:52;17.00;80.40
59505;DHT22;45321;53.200;5.814;2023-08-17T03:54:18;17.00;80.60
59505;DHT22;45321;53.200;5.814;2023-08-17T03:56:44;17.00;80.60
59505;DHT22;45321;53.200;5.814;2023-08-17T03:59:10;16.90;80.50
59505;DHT22;45321;53.200;5.814;2023-08-17T04:01:36;16.90;80.40
59505;DHT22;45321;53.200;5.814;2023-08-17T04:04:01;16.90;80.60
59505;DHT22;45321;53.200;5.814;2023-08-17T04:06:27;16.90;80.70
59505;DHT22;45321;53.200;5.814;2023-08-17T04:08:53;16.90;80.40
59505;DHT22;45321;53.200;5.814;2023-08-17T04:11:19;16.90;80.60
59505;DHT22;45321;53.200;5.814;2023-08-17T04:13:44;16.90;80.70
59505;DHT22;45321;53.200;5.814;2023-08-17T04:16:10;16.80;80.50
59505;DHT22;45321;53.200;5.814;2023-08-17T04:18:36;16.90;80.60
59505;DHT22;45321;53.200;5.814;2023-08-17T04:21:02;16.80;80.70
59505;DHT22;45321;53.200;5.814;2023-08-17T04:23:27;16.80;80.60
59505;DHT22;45321;53.200;5.814;2023-08-17T04:25:54;16.80;80.60
59505;DHT22;45321;53.200;5.814;2023-08-17T04:28:20;16.80;80.50
59505;DHT22;45321;53.200;5.814;2023-08-17T04:30:46;16.80;80.70
59505;DHT22;45321;53.200;5.814;2023-08-17T04:33:12;16.80;80.80
59505;DHT22;45321;53.200;5.814;2023-08-17T04:35:38;16.80;80.90
59505;DHT22;45321;53.200;5.814;2023-08-17T04:38:04;16.80;80.70
59505;DHT22;45321;53.200;5.814;2023-08-17T04:40:30;16.80;80.80
59505;DHT22;45321;53.200;5.814;2023-08-17T04:42:56;16.80;81.10
59505;DHT22;45321;53.200;5.814;2023-08-17T04:45:22;16.90;80.80
59505;DHT22;45321;53.200;5.814;2023-08-17T04:47:48;16.90;81.00
59505;DHT22;45321;53.200;5.814;2023-08-17T04:50:15;16.90;81.00
59505;DHT22;45321;53.200;5.814;2023-08-17T04:52:45;16.90;81.00
59505;DHT22;45321;53.200;5.814;2023-08-17T04:55:12;16.90;81.00
59505;DHT22;45321;53.200;5.814;2023-08-17T04:57:38;16.90;81.00
59505;DHT22;45321;53.200;5.814;2023-08-17T05:00:04;17.00;81.00
59505;DHT22;45321;53.200;5.814;2023-08-17T05:02:34;17.00;81.10
59505;DHT22;45321;53.200;5.814;2023-08-17T05:04:59;17.00;81.00
59505;DHT22;45321;53.200;5.814;2023-08-17T05:07:25;17.00;81.10
59505;DHT22;45321;53.200;5.814;2023-08-17T05:09:51;17.00;81.00
59505;DHT22;45321;53.200;5.814;2023-08-17T05:12:16;17.10;81.00
59505;DHT22;45321;53.200;5.814;2023-08-17T05:14:42;17.10;81.00
59505;DHT22;45321;53.200;5.814;2023-08-17T05:17:08;17.10;80.90
59505;DHT22;45321;53.200;5.814;2023-08-17T05:19:33;17.00;80.90
59505;DHT22;45321;53.200;5.814;2023-08-17T05:21:59;17.10;80.80
59505;DHT22;45321;53.200;5.814;2023-08-17T05:24:25;17.10;80.90
59505;DHT22;45321;53.200;5.814;2023-08-17T05:26:51;17.10;80.50
59505;DHT22;45321;53.200;5.814;2023-08-17T05:29:16;17.10;80.60
59505;DHT22;45321;53.200;5.814;2023-08-17T05:31:42;17.10;80.70
59505;DHT22;45321;53.200;5.814;2023-08-17T05:34:07;17.20;80.70
59505;DHT22;45321;53.200;5.814;2023-08-17T05:36:33;17.20;80.60
59505;DHT22;45321;53.200;5.814;2023-08-17T05:38:59;17.20;80.70
59505;DHT22;45321;53.200;5.814;2023-08-17T05:41:24;17.20;80.60
59505;DHT22;45321;53.200;5.814;2023-08-17T05:43:50;17.20;80.50
59505;DHT22;45321;53.200;5.814;2023-08-17T05:46:16;17.30;80.70
59505;DHT22;45321;53.200;5.814;2023-08-17T05:48:42;17.20;80.70
59505;DHT22;45321;53.200;5.814;2023-08-17T05:51:07;17.30;80.80
59505;DHT22;45321;53.200;5.814;2023-08-17T05:53:33;17.30;80.80
59505;DHT22;45321;53.200;5.814;2023-08-17T05:55:59;17.30;80.80
59505;DHT22;45321;53.200;5.814;2023-08-17T05:58:24;17.30;80.90
59505;DHT22;45321;53.200;5.814;2023-08-17T06:00:50;17.30;80.90
59505;DHT22;45321;53.200;5.814;2023-08-17T06:03:16;17.30;80.80
59505;DHT22;45321;53.200;5.814;2023-08-17T06:05:42;17.40;80.90
59505;DHT22;45321;53.200;5.814;2023-08-17T06:08:08;17.40;80.70
59505;DHT22;45321;53.200;5.814;2023-08-17T06:10:33;17.40;80.70
59505;DHT22;45321;53.200;5.814;2023-08-17T06:12:59;17.50;80.70
59505;DHT22;45321;53.200;5.814;2023-08-17T06:15:25;17.50;80.80
59505;DHT22;45321;53.200;5.814;2023-08-17T06:17:51;17.50;80.90
59505;DHT22;45321;53.200;5.814;2023-08-17T06:20:17;17.60;80.80
59505;DHT22;45321;53.200;5.814;2023-08-17T06:22:44;17.60;80.70
59505;DHT22;45321;53.200;5.814;2023-08-17T06:25:09;17.70;80.70
59505;DHT22;45321;53.200;5.814;2023-08-17T06:27:36;17.70;80.80
59505;DHT22;45321;53.200;5.814;2023-08-17T06:30:03;17.80;80.70
59505;DHT22;45321;53.200;5.814;2023-08-17T06:32:32;17.80;80.70
59505;DHT22;45321;53.200;5.814;2023-08-17T06:34:58;17.80;80.80
59505;DHT22;45321;53.200;5.814;2023-08-17T06:37:24;17.80;80.70
59505;DHT22;45321;53.200;5.814;2023-08-17T06:39:50;17.90;80.90
59505;DHT22;45321;53.200;5.814;2023-08-17T06:42:15;17.90;81.00
59505;DHT22;45321;53.200;5.814;2023-08-17T06:44:41;18.00;80.90
59505;DHT22;45321;53.200;5.814;2023-08-17T06:47:07;18.00;81.00
59505;DHT22;45321;53.200;5.814;2023-08-17T06:49:32;18.00;81.40
59505;DHT22;45321;53.200;5.814;2023-08-17T06:51:58;18.10;81.20
59505;DHT22;45321;53.200;5.814;2023-08-17T06:54:32;18.20;80.80
59505;DHT22;45321;53.200;5.814;2023-08-17T06:56:58;18.20;80.70
59505;DHT22;45321;53.200;5.814;2023-08-17T06:59:24;18.40;80.60
59505;DHT22;45321;53.200;5.814;2023-08-17T07:01:50;18.50;80.40
59505;DHT22;45321;53.200;5.814;2023-08-17T07:04:15;18.60;80.20
59505;DHT22;45321;53.200;5.814;2023-08-17T07:06:41;18.70;79.70
59505;DHT22;45321;53.200;5.814;2023-08-17T07:09:09;18.80;79.00
59505;DHT22;45321;53.200;5.814;2023-08-17T07:11:38;18.90;78.80
59505;DHT22;45321;53.200;5.814;2023-08-17T07:14:04;19.00;78.50
59505;DHT22;45321;53.200;5.814;2023-08-17T07:16:32;19.10;78.00
59505;DHT22;45321;53.200;5.814;2023-08-17T07:18:57;19.20;77.80
59505;DHT22;45321;53.200;5.814;2023-08-17T07:21:23;19.20;76.90
59505;DHT22;45321;53.200;5.814;2023-08-17T07:23:50;19.20;76.80
59505;DHT22;45321;53.200;5.814;2023-08-17T07:26:19;19.20;76.80
59505;DHT22;45321;53.200;5.814;2023-08-17T07:28:45;19.30;77.00
59505;DHT22;45321;53.200;5.814;2023-08-17T07:31:10;19.50;76.80
59505;DHT22;45321;53.200;5.814;2023-08-17T07:33:36;19.50;76.60
59505;DHT22;45321;53.200;5.814;2023-08-17T07:36:02;19.50;76.60
59505;DHT22;45321;53.200;5.814;2023-08-17T07:38:28;19.60;76.50
59505;DHT22;45321;53.200;5.814;2023-08-17T07:40:55;19.60;75.40
59505;DHT22;45321;53.200;5.814;2023-08-17T07:43:21;19.60;75.50
59505;DHT22;45321;53.200;5.814;2023-08-17T07:45:56;19.50;74.10
59505;DHT22;45321;53.200;5.814;2023-08-17T07:48:22;19.50;74.50
59505;DHT22;45321;53.200;5.814;2023-08-17T07:50:52;19.40;74.50
59505;DHT22;45321;53.200;5.814;2023-08-17T07:53:18;19.50;74.50
59505;DHT22;45321;53.200;5.814;2023-08-17T07:55:45;19.50;74.30
59505;DHT22;45321;53.200;5.814;2023-08-17T07:58:11;19.70;74.80
59505;DHT22;45321;53.200;5.814;2023-08-17T08:00:37;19.70;74.90
59505;DHT22;45321;53.200;5.814;2023-08-17T08:03:03;19.80;75.10
59505;DHT22;45321;53.200;5.814;2023-08-17T08:05:29;19.90;74.20
59505;DHT22;45321;53.200;5.814;2023-08-17T08:07:55;20.00;73.90
59505;DHT22;45321;53.200;5.814;2023-08-17T08:10:21;20.10;74.00
59505;DHT22;45321;53.200;5.814;2023-08-17T08:12:46;20.20;73.90
59505;DHT22;45321;53.200;5.814;2023-08-17T08:15:12;20.20;72.80
59505;DHT22;45321;53.200;5.814;2023-08-17T08:17:38;20.20;72.90
59505;DHT22;45321;53.200;5.814;2023-08-17T08:20:04;20.20;72.60
59505;DHT22;45321;53.200;5.814;2023-08-17T08:22:30;20.20;72.80
59505;DHT22;45321;53.200;5.814;2023-08-17T08:24:57;20.20;72.50
59505;DHT22;45321;53.200;5.814;2023-08-17T08:27:23;20.20;71.30
59505;DHT22;45321;53.200;5.814;2023-08-17T08:29:52;20.00;71.60
59505;DHT22;45321;53.200;5.814;2023-08-17T08:32:17;19.90;71.70
59505;DHT22;45321;53.200;5.814;2023-08-17T08:34:43;19.90;72.20
59505;DHT22;45321;53.200;5.814;2023-08-17T08:37:08;19.90;72.60
59505;DHT22;45321;53.200;5.814;2023-08-17T08:39:48;20.00;72.40
59505;DHT22;45321;53.200;5.814;2023-08-17T08:42:15;20.00;72.10
59505;DHT22;45321;53.200;5.814;2023-08-17T08:44:41;19.90;72.50
59505;DHT22;45321;53.200;5.814;2023-08-17T08:47:08;19.90;72.60
59505;DHT22;45321;53.200;5.814;2023-08-17T08:49:39;19.90;73.00
59505;DHT22;45321;53.200;5.814;2023-08-17T08:52:12;20.10;73.40
59505;DHT22;45321;53.200;5.814;2023-08-17T08:54:41;20.30;73.60
59505;DHT22;45321;53.200;5.814;2023-08-17T08:57:12;20.40;71.40
59505;DHT22;45321;53.200;5.814;2023-08-17T08:59:39;20.50;71.80
59505;DHT22;45321;53.200;5.814;2023-08-17T09:02:14;20.60;71.40
59505;DHT22;45321;53.200;5.814;2023-08-17T09:04:41;20.50;70.30
59505;DHT22;45321;53.200;5.814;2023-08-17T09:07:08;20.40;70.80
59505;DHT22;45321;53.200;5.814;2023-08-17T09:09:35;20.40;71.20
59505;DHT22;45321;53.200;5.814;2023-08-17T09:12:07;20.40;71.30
59505;DHT22;45321;53.200;5.814;2023-08-17T09:14:34;20.50;71.30
59505;DHT22;45321;53.200;5.814;2023-08-17T09:17:00;20.60;71.00
59505;DHT22;45321;53.200;5.814;2023-08-17T09:19:26;20.50;71.50
59505;DHT22;45321;53.200;5.814;2023-08-17T09:21:56;20.50;72.00
59505;DHT22;45321;53.200;5.814;2023-08-17T09:24:21;20.60;71.70
59505;DHT22;45321;53.200;5.814;2023-08-17T09:26:49;20.70;73.00
59505;DHT22;45321;53.200;5.814;2023-08-17T09:29:19;20.70;73.00
59505;DHT22;45321;53.200;5.814;2023-08-17T09:31:46;20.80;72.80
59505;DHT22;45321;53.200;5.814;2023-08-17T09:34:12;20.90;72.30
59505;DHT22;45321;53.200;5.814;2023-08-17T09:36:40;21.00;72.90
59505;DHT22;45321;53.200;5.814;2023-08-17T09:39:06;21.00;72.50
59505;DHT22;45321;53.200;5.814;2023-08-17T09:41:38;21.10;71.70
59505;DHT22;45321;53.200;5.814;2023-08-17T09:44:08;21.20;70.50
59505;DHT22;45321;53.200;5.814;2023-08-17T09:46:34;21.20;69.60
59505;DHT22;45321;53.200;5.814;2023-08-17T09:49:02;21.20;69.80
59505;DHT22;45321;53.200;5.814;2023-08-17T09:51:31;21.20;70.10
59505;DHT22;45321;53.200;5.814;2023-08-17T09:53:57;21.20;71.00
59505;DHT22;45321;53.200;5.814;2023-08-17T09:56:23;21.20;71.20
59505;DHT22;45321;53.200;5.814;2023-08-17T09:58:51;21.20;71.20
59505;DHT22;45321;53.200;5.814;2023-08-17T10:01:18;21.20;71.10
59505;DHT22;45321;53.200;5.814;2023-08-17T10:03:44;21.20;70.30
59505;DHT22;45321;53.200;5.814;2023-08-17T10:06:13;21.20;70.60
59505;DHT22;45321;53.200;5.814;2023-08-17T10:08:43;21.20;69.60
59505;DHT22;45321;53.200;5.814;2023-08-17T10:11:12;21.20;69.80
59505;DHT22;45321;53.200;5.814;2023-08-17T10:14:06;21.10;70.60
59505;DHT22;45321;53.200;5.814;2023-08-17T10:16:44;21.20;71.70
59505;DHT22;45321;53.200;5.814;2023-08-17T10:19:33;21.20;71.70
59505;DHT22;45321;53.200;5.814;2023-08-17T10:24:57;21.50;69.80
59505;DHT22;45321;53.200;5.814;2023-08-17T10:27:24;21.50;69.60
59505;DHT22;45321;53.200;5.814;2023-08-17T10:29:51;21.50;69.60
59505;DHT22;45321;53.200;5.814;2023-08-17T10:32:17;21.40;69.40
59505;DHT22;45321;53.200;5.814;2023-08-17T10:34:44;21.50;69.40
59505;DHT22;45321;53.200;5.814;2023-08-17T10:37:11;21.50;70.30
59505;DHT22;45321;53.200;5.814;2023-08-17T10:39:45;21.50;69.80
59505;DHT22;45321;53.200;5.814;2023-08-17T10:42:13;21.60;69.60
59505;DHT22;45321;53.200;5.814;2023-08-17T10:44:47;21.70;70.30
59505;DHT22;45321;53.200;5.814;2023-08-17T10:47:23;21.80;69.40
59505;DHT22;45321;53.200;5.814;2023-08-17T10:52:29;22.10;67.60
59505;DHT22;45321;53.200;5.814;2023-08-17T10:55:03;22.10;68.00
59505;DHT22;45321;53.200;5.814;2023-08-17T10:57:36;22.10;67.60
59505;DHT22;45321;53.200;5.814;2023-08-17T11:00:24;22.20;68.90
59505;DHT22;45321;53.200;5.814;2023-08-17T11:02:58;22.30;70.50
59505;DHT22;45321;53.200;5.814;2023-08-17T11:05:46;22.60;69.00
59505;DHT22;45321;53.200;5.814;2023-08-17T11:08:32;22.70;67.60
59505;DHT22;45321;53.200;5.814;2023-08-17T11:11:10;22.70;66.70
59505;DHT22;45321;53.200;5.814;2023-08-17T11:13:46;22.70;66.10
59505;DHT22;45321;53.200;5.814;2023-08-17T11:16:12;22.70;66.20
59505;DHT22;45321;53.200;5.814;2023-08-17T11:18:38;22.70;65.30
59505;DHT22;45321;53.200;5.814;2023-08-17T11:21:08;22.70;67.10
59505;DHT22;45321;53.200;5.814;2023-08-17T11:23:36;22.70;66.00
59505;DHT22;45321;53.200;5.814;2023-08-17T11:26:03;22.70;66.10
59505;DHT22;45321;53.200;5.814;2023-08-17T11:28:32;22.60;66.70
59505;DHT22;45321;53.200;5.814;2023-08-17T11:31:03;22.60;66.20
59505;DHT22;45321;53.200;5.814;2023-08-17T11:33:31;22.60;66.10
59505;DHT22;45321;53.200;5.814;2023-08-17T11:35:58;22.60;66.90
59505;DHT22;45321;53.200;5.814;2023-08-17T11:38:24;22.70;66.60
59505;DHT22;45321;53.200;5.814;2023-08-17T11:40:50;22.70;66.90
59505;DHT22;45321;53.200;5.814;2023-08-17T11:43:16;22.90;65.80
59505;DHT22;45321;53.200;5.814;2023-08-17T11:45:42;23.00;67.20
59505;DHT22;45321;53.200;5.814;2023-08-17T11:48:08;23.10;67.20
59505;DHT22;45321;53.200;5.814;2023-08-17T11:50:35;23.10;66.20
59505;DHT22;45321;53.200;5.814;2023-08-17T11:53:01;23.00;66.80
59505;DHT22;45321;53.200;5.814;2023-08-17T11:55:27;22.90;66.80
59505;DHT22;45321;53.200;5.814;2023-08-17T11:57:53;22.90;67.10
59505;DHT22;45321;53.200;5.814;2023-08-17T12:00:20;22.80;65.60
59505;DHT22;45321;53.200;5.814;2023-08-17T12:02:52;22.70;66.60
59505;DHT22;45321;53.200;5.814;2023-08-17T12:05:22;22.70;67.60
59505;DHT22;45321;53.200;5.814;2023-08-17T12:07:49;22.70;67.30
59505;DHT22;45321;53.200;5.814;2023-08-17T12:10:17;22.70;66.90
59505;DHT22;45321;53.200;5.814;2023-08-17T12:12:43;22.70;67.30
59505;DHT22;45321;53.200;5.814;2023-08-17T12:15:12;22.60;67.60
59505;DHT22;45321;53.200;5.814;2023-08-17T12:17:47;22.50;66.30
59505;DHT22;45321;53.200;5.814;2023-08-17T12:20:20;22.50;66.80
59505;DHT22;45321;53.200;5.814;2023-08-17T12:22:46;22.40;67.00
59505;DHT22;45321;53.200;5.814;2023-08-17T12:25:13;22.40;68.20
59505;DHT22;45321;53.200;5.814;2023-08-17T12:27:39;22.50;67.70
59505;DHT22;45321;53.200;5.814;2023-08-17T12:30:09;22.40;66.90
59505;DHT22;45321;53.200;5.814;2023-08-17T12:32:37;22.20;66.70
59505;DHT22;45321;53.200;5.814;2023-08-17T12:35:03;22.20;67.80
59505;DHT22;45321;53.200;5.814;2023-08-17T12:37:29;22.20;68.00
59505;DHT22;45321;53.200;5.814;2023-08-17T12:39:55;22.20;67.60
59505;DHT22;45321;53.200;5.814;2023-08-17T12:42:21;22.10;68.10
59505;DHT22;45321;53.200;5.814;2023-08-17T12:44:47;22.10;68.10
59505;DHT22;45321;53.200;5.814;2023-08-17T12:47:12;22.00;68.90
59505;DHT22;45321;53.200;5.814;2023-08-17T12:49:38;22.00;68.50
59505;DHT22;45321;53.200;5.814;2023-08-17T12:52:04;22.00;68.60
59505;DHT22;45321;53.200;5.814;2023-08-17T12:54:30;22.00;68.40
59505;DHT22;45321;53.200;5.814;2023-08-17T12:56:55;21.90;68.60
59505;DHT22;45321;53.200;5.814;2023-08-17T12:59:21;21.90;68.90
59505;DHT22;45321;53.200;5.814;2023-08-17T13:01:47;21.80;69.40
59505;DHT22;45321;53.200;5.814;2023-08-17T13:04:13;21.80;69.30
59505;DHT22;45321;53.200;5.814;2023-08-17T13:06:39;21.80;69.30
59505;DHT22;45321;53.200;5.814;2023-08-17T13:09:05;21.90;68.90
59505;DHT22;45321;53.200;5.814;2023-08-17T13:11:31;21.90;69.10
59505;DHT22;45321;53.200;5.814;2023-08-17T13:13:57;22.00;69.40
59505;DHT22;45321;53.200;5.814;2023-08-17T13:16:23;22.00;69.30
59505;DHT22;45321;53.200;5.814;2023-08-17T13:18:49;22.00;68.80
59505;DHT22;45321;53.200;5.814;2023-08-17T13:21:14;22.10;69.30
59505;DHT22;45321;53.200;5.814;2023-08-17T13:23:41;22.00;69.60
59505;DHT22;45321;53.200;5.814;2023-08-17T13:26:07;21.90;69.90
59505;DHT22;45321;53.200;5.814;2023-08-17T13:28:33;21.90;69.80
59505;DHT22;45321;53.200;5.814;2023-08-17T13:30:59;21.80;69.80
59505;DHT22;45321;53.200;5.814;2023-08-17T13:33:24;21.90;70.70
59505;DHT22;45321;53.200;5.814;2023-08-17T13:35:50;21.90;70.40
59505;DHT22;45321;53.200;5.814;2023-08-17T13:38:17;21.80;70.00
59505;DHT22;45321;53.200;5.814;2023-08-17T13:40:42;21.90;70.50
59505;DHT22;45321;53.200;5.814;2023-08-17T13:43:08;21.80;70.40
59505;DHT22;45321;53.200;5.814;2023-08-17T13:45:38;21.80;70.60
59505;DHT22;45321;53.200;5.814;2023-08-17T13:48:05;21.80;70.30
59505;DHT22;45321;53.200;5.814;2023-08-17T13:50:31;21.80;70.70
59505;DHT22;45321;53.200;5.814;2023-08-17T13:53:00;21.80;70.60
59505;DHT22;45321;53.200;5.814;2023-08-17T13:55:27;21.80;70.90
59505;DHT22;45321;53.200;5.814;2023-08-17T13:57:53;21.80;70.50
59505;DHT22;45321;53.200;5.814;2023-08-17T14:00:21;21.80;70.90
59505;DHT22;45321;53.200;5.814;2023-08-17T14:02:47;21.80;70.80
59505;DHT22;45321;53.200;5.814;2023-08-17T14:05:13;21.70;70.50
59505;DHT22;45321;53.200;5.814;2023-08-17T14:07:38;21.70;70.70
59505;DHT22;45321;53.200;5.814;2023-08-17T14:10:04;21.70;70.60
59505;DHT22;45321;53.200;5.814;2023-08-17T14:12:30;21.70;71.00
59505;DHT22;45321;53.200;5.814;2023-08-17T14:14:56;21.70;70.90
59505;DHT22;45321;53.200;5.814;2023-08-17T14:17:22;21.70;70.80
59505;DHT22;45321;53.200;5.814;2023-08-17T14:19:47;21.60;71.30
59505;DHT22;45321;53.200;5.814;2023-08-17T14:22:13;21.60;71.00
59505;DHT22;45321;53.200;5.814;2023-08-17T14:24:39;21.60;71.30
59505;DHT22;45321;53.200;5.814;2023-08-17T14:27:05;21.50;71.40
59505;DHT22;45321;53.200;5.814;2023-08-17T14:29:30;21.50;71.60
59505;DHT22;45321;53.200;5.814;2023-08-17T14:31:56;21.50;71.50
59505;DHT22;45321;53.200;5.814;2023-08-17T14:34:22;21.40;71.50
59505;DHT22;45321;53.200;5.814;2023-08-17T14:36:48;21.40;71.80
59505;DHT22;45321;53.200;5.814;2023-08-17T14:39:13;21.30;71.80
59505;DHT22;45321;53.200;5.814;2023-08-17T14:41:39;21.30;71.80
59505;DHT22;45321;53.200;5.814;2023-08-17T14:44:05;21.30;72.00
59505;DHT22;45321;53.200;5.814;2023-08-17T14:46:31;21.30;72.00
59505;DHT22;45321;53.200;5.814;2023-08-17T14:48:59;21.20;72.20
59505;DHT22;45321;53.200;5.814;2023-08-17T14:51:28;21.30;72.30
59505;DHT22;45321;53.200;5.814;2023-08-17T14:53:53;21.30;72.00
59505;DHT22;45321;53.200;5.814;2023-08-17T14:56:19;21.30;72.30
59505;DHT22;45321;53.200;5.814;2023-08-17T14:58:45;21.20;72.40
59505;DHT22;45321;53.200;5.814;2023-08-17T15:01:11;21.20;72.40
59505;DHT22;45321;53.200;5.814;2023-08-17T15:03:37;21.20;72.30
59505;DHT22;45321;53.200;5.814;2023-08-17T15:06:08;21.20;72.40
59505;DHT22;45321;53.200;5.814;2023-08-17T15:08:34;21.20;72.70
59505;DHT22;45321;53.200;5.814;2023-08-17T15:11:00;21.20;72.60
59505;DHT22;45321;53.200;5.814;2023-08-17T15:13:27;21.20;73.00
59505;DHT22;45321;53.200;5.814;2023-08-17T15:15:54;21.20;72.60
59505;DHT22;45321;53.200;5.814;2023-08-17T15:18:26;21.20;72.60
59505;DHT22;45321;53.200;5.814;2023-08-17T15:20:52;21.20;72.70
59505;DHT22;45321;53.200;5.814;2023-08-17T15:23:18;21.20;72.30
59505;DHT22;45321;53.200;5.814;2023-08-17T15:25:43;21.20;72.60
59505;DHT22;45321;53.200;5.814;2023-08-17T15:28:09;21.20;73.40
59505;DHT22;45321;53.200;5.814;2023-08-17T15:30:35;21.20;73.00
59505;DHT22;45321;53.200;5.814;2023-08-17T15:33:01;21.20;72.70
59505;DHT22;45321;53.200;5.814;2023-08-17T15:35:26;21.20;72.90
59505;DHT22;45321;53.200;5.814;2023-08-17T15:37:52;21.20;73.10
59505;DHT22;45321;53.200;5.814;2023-08-17T15:40:18;21.20;73.40